createdAt,value
2023-02-08T00:00:13.877Z,36.43
2023-02-08T00:02:41.100Z,36.44
2023-02-08T00:05:08.499Z,36.43
2023-02-08T00:07:35.620Z,36.38
2023-02-08T00:10:02.924Z,36.29
2023-02-08T00:12:30.012Z,36.19
2023-02-08T00:14:57.113Z,36.17
2023-02-08T00:17:25.751Z,36.04
2023-02-08T00:19:53.109Z,36.13
2023-02-08T00:22:20.280Z,36.23
2023-02-08T00:24:47.429Z,36.29
2023-02-08T00:27:14.621Z,36.20
2023-02-08T00:29:41.752Z,36.21
2023-02-08T00:32:09.381Z,36.40
2023-02-08T00:34:38.178Z,36.23
2023-02-08T00:37:05.309Z,36.25
2023-02-08T00:39:32.734Z,36.21
2023-02-08T00:41:59.915Z,36.30
2023-02-08T00:44:27.023Z,36.43
2023-02-08T00:46:54.363Z,36.46
2023-02-08T00:49:21.512Z,36.32
2023-02-08T00:51:50.035Z,36.28
2023-02-08T00:54:18.817Z,36.26
2023-02-08T00:56:46.005Z,36.24
2023-02-08T00:59:13.281Z,36.24
2023-02-08T01:01:40.724Z,36.30
2023-02-08T01:04:08.008Z,36.18
2023-02-08T01:06:35.103Z,36.17
2023-02-08T01:09:04.027Z,36.20
2023-02-08T01:11:31.166Z,36.17
2023-02-08T01:13:59.844Z,36.03
2023-02-08T01:16:28.819Z,36.09
2023-02-08T01:18:58.136Z,36.17
2023-02-08T01:21:28.687Z,36.15
2023-02-08T01:23:55.946Z,36.09
2023-02-08T01:26:25.547Z,36.03
2023-02-08T01:28:54.666Z,36.09
2023-02-08T01:31:24.043Z,36.15
2023-02-08T01:33:51.312Z,36.27
2023-02-08T01:36:18.650Z,36.13
2023-02-08T01:38:46.228Z,36.17
2023-02-08T01:41:16.339Z,36.16
2023-02-08T01:44:18.090Z,36.27
2023-02-08T01:46:46.766Z,36.20
2023-02-08T01:49:18.516Z,36.23
2023-02-08T01:51:49.956Z,36.13
2023-02-08T01:54:20.402Z,36.06
2023-02-08T01:56:48.957Z,35.96
2023-02-08T01:59:21.350Z,35.86
2023-02-08T02:01:51.074Z,36.11
2023-02-08T02:04:18.540Z,35.99
2023-02-08T02:06:48.966Z,35.98
2023-02-08T02:09:23.102Z,35.94
2023-02-08T02:11:51.807Z,36.05
2023-02-08T02:14:21.358Z,36.02
2023-02-08T02:16:48.774Z,36.14
2023-02-08T02:19:26.228Z,36.05
2023-02-08T02:22:05.077Z,36.04
2023-02-08T02:24:53.099Z,36.22
2023-02-08T02:27:28.945Z,36.20
2023-02-08T02:30:25.634Z,36.22
2023-02-08T02:33:12.839Z,36.05
2023-02-08T02:35:45.446Z,36.23
2023-02-08T02:38:18.187Z,36.16
2023-02-08T02:40:55.267Z,36.08
2023-02-08T02:43:31.236Z,36.11
2023-02-08T02:46:07.318Z,36.04
2023-02-08T02:48:42.257Z,36.04
2023-02-08T02:51:12.161Z,35.99
2023-02-08T02:53:47.744Z,36.06
2023-02-08T02:56:18.089Z,36.10
2023-02-08T02:58:45.528Z,36.06
2023-02-08T03:01:12.831Z,36.05
2023-02-08T03:03:41.578Z,36.08
2023-02-08T03:06:14.656Z,35.87
2023-02-08T03:09:15.871Z,35.62
2023-02-08T03:11:52.646Z,35.42
2023-02-08T03:14:33.891Z,35.30
2023-02-08T03:17:11.781Z,34.93
2023-02-08T03:19:51.816Z,34.75
2023-02-08T03:22:25.489Z,34.17
2023-02-08T03:24:55.628Z,34.08
2023-02-08T03:27:30.649Z,33.93
2023-02-08T03:30:02.386Z,33.78
2023-02-08T03:32:38.686Z,34.01
2023-02-08T03:35:11.336Z,33.94
2023-02-08T03:37:44.086Z,34.22
2023-02-08T03:40:17.605Z,34.17
2023-02-08T03:42:48.188Z,34.41
2023-02-08T03:45:21.854Z,34.41
2023-02-08T03:47:51.746Z,34.50
2023-02-08T03:50:22.448Z,34.57
2023-02-08T03:52:51.978Z,34.59
2023-02-08T03:55:23.414Z,34.76
2023-02-08T03:57:55.370Z,34.74
2023-02-08T04:00:23.568Z,34.80
2023-02-08T04:02:56.945Z,34.97
2023-02-08T04:05:25.740Z,35.13
2023-02-08T04:07:52.988Z,35.29
2023-02-08T04:10:20.502Z,35.25
2023-02-08T04:12:48.816Z,35.43
2023-02-08T04:15:16.446Z,35.49
2023-02-08T04:17:43.564Z,35.52
2023-02-08T04:20:11.566Z,35.56
2023-02-08T04:22:40.204Z,35.30
2023-02-08T04:25:07.472Z,35.22
2023-02-08T04:27:34.578Z,35.39
2023-02-08T04:30:01.678Z,35.46
2023-02-08T04:32:28.775Z,35.49
2023-02-08T04:34:55.903Z,35.45
2023-02-08T04:37:23.004Z,35.67
2023-02-08T04:39:51.482Z,35.50
2023-02-08T04:42:18.761Z,35.54
2023-02-08T04:44:45.855Z,35.66
2023-02-08T04:47:12.995Z,35.64
2023-02-08T04:49:40.136Z,35.65
2023-02-08T04:52:07.383Z,35.88
2023-02-08T04:54:34.659Z,35.61
2023-02-08T04:57:03.202Z,35.54
2023-02-08T04:59:30.302Z,35.44
2023-02-08T05:01:57.420Z,35.20
2023-02-08T05:04:24.621Z,34.87
2023-02-08T05:06:51.775Z,34.46
2023-02-08T05:09:18.884Z,34.31
2023-02-08T05:11:45.997Z,34.20
2023-02-08T05:14:14.441Z,34.06
2023-02-08T05:16:41.627Z,34.20
2023-02-08T05:19:10.763Z,34.14
2023-02-08T05:21:37.852Z,34.13
2023-02-08T05:24:05.450Z,34.19
2023-02-08T05:26:32.774Z,34.53
2023-02-08T05:28:59.884Z,34.79
2023-02-08T05:31:28.461Z,34.75
2023-02-08T05:33:55.713Z,39.91
2023-02-08T05:36:23.586Z,37.03
2023-02-08T05:38:50.819Z,35.99
2023-02-08T05:41:17.953Z,35.76
2023-02-08T05:43:45.126Z,35.88
2023-02-08T05:46:12.515Z,36.08
2023-02-08T05:48:41.017Z,36.07
2023-02-08T05:51:08.300Z,36.26
2023-02-08T05:53:35.459Z,36.01
2023-02-08T05:56:02.602Z,36.07
2023-02-08T05:58:29.696Z,35.97
2023-02-08T06:00:56.874Z,36.07
2023-02-08T06:03:24.019Z,35.91
2023-02-08T06:05:52.466Z,35.93
2023-02-08T06:08:19.578Z,35.77
2023-02-08T06:10:48.886Z,35.79
2023-02-08T06:13:15.999Z,35.78
2023-02-08T06:15:43.193Z,35.89
2023-02-08T06:18:10.438Z,35.98
2023-02-08T06:20:37.948Z,36.00
2023-02-08T06:23:06.638Z,35.86
2023-02-08T06:25:34.161Z,35.89
2023-02-08T06:28:01.302Z,35.96
2023-02-08T06:30:28.668Z,36.03
2023-02-08T06:32:55.788Z,36.12
2023-02-08T06:35:22.896Z,35.91
2023-02-08T06:37:50.004Z,36.17
2023-02-08T06:40:18.710Z,36.05
2023-02-08T06:42:46.744Z,35.85
2023-02-08T06:45:13.904Z,35.81
2023-02-08T06:47:41.104Z,35.82
2023-02-08T06:50:08.711Z,35.66
2023-02-08T06:52:36.076Z,35.35
2023-02-08T06:55:03.395Z,35.03
2023-02-08T06:57:31.855Z,34.83
2023-02-08T06:59:58.962Z,35.05
2023-02-08T07:02:26.128Z,35.06
2023-02-08T07:04:53.261Z,34.85
2023-02-08T07:07:20.431Z,35.27
2023-02-08T07:09:47.615Z,35.42
2023-02-08T07:12:14.717Z,35.25
2023-02-08T07:14:43.743Z,35.32
2023-02-08T07:17:12.358Z,35.40
2023-02-08T07:19:40.012Z,35.43
2023-02-08T07:22:07.621Z,35.44
2023-02-08T07:24:35.530Z,35.42
2023-02-08T07:27:02.741Z,35.62
2023-02-08T07:29:30.596Z,35.90
2023-02-08T07:31:59.854Z,36.05
2023-02-08T07:34:29.626Z,36.06
2023-02-08T07:36:56.739Z,36.25
2023-02-08T07:39:23.962Z,36.17
2023-02-08T07:41:51.390Z,36.24
2023-02-08T07:44:18.810Z,36.16
2023-02-08T07:46:45.936Z,36.09
2023-02-08T07:49:14.712Z,36.14
2023-02-08T07:51:41.966Z,36.07
2023-02-08T07:54:09.126Z,36.13
2023-02-08T07:56:36.257Z,36.12
2023-02-08T07:59:03.474Z,36.21
2023-02-08T08:01:30.728Z,36.31
2023-02-08T08:03:57.989Z,36.38
2023-02-08T08:06:26.454Z,36.41
2023-02-08T08:08:53.799Z,36.51
2023-02-08T08:11:21.646Z,36.46
2023-02-08T08:13:49.180Z,36.72
2023-02-08T08:16:16.721Z,36.49
2023-02-08T08:18:44.355Z,36.71
2023-02-08T08:21:12.049Z,36.87
2023-02-08T08:23:40.792Z,36.93
2023-02-08T08:26:09.317Z,36.99
2023-02-08T08:28:36.910Z,36.99
2023-02-08T08:31:09.894Z,36.55
2023-02-08T08:33:37.127Z,36.39
2023-02-08T08:36:04.560Z,36.00
2023-02-08T08:38:31.809Z,36.03
2023-02-08T08:41:00.290Z,35.87
2023-02-08T08:43:27.422Z,35.65
2023-02-08T08:45:54.536Z,35.61
2023-02-08T08:48:21.693Z,35.60
2023-02-08T08:50:51.494Z,35.42
2023-02-08T08:53:18.622Z,35.48
2023-02-08T08:55:45.837Z,35.48
2023-02-08T08:58:14.322Z,35.46
2023-02-08T09:00:41.678Z,35.35
2023-02-08T09:03:08.957Z,35.26
2023-02-08T09:05:36.218Z,35.24
2023-02-08T09:08:03.615Z,35.27
2023-02-08T09:10:30.960Z,35.36
2023-02-08T09:12:58.176Z,35.54
2023-02-08T09:15:26.682Z,35.68
2023-02-08T09:17:53.797Z,35.48
2023-02-08T09:20:20.981Z,35.59
2023-02-08T09:22:48.207Z,35.47
2023-02-08T09:25:15.555Z,35.49
2023-02-08T09:27:42.642Z,35.47
2023-02-08T09:30:10.926Z,35.36
2023-02-08T09:32:39.760Z,35.39
2023-02-08T09:35:07.866Z,35.46
2023-02-08T09:37:35.237Z,35.33
2023-02-08T09:40:02.345Z,35.53
2023-02-08T09:42:39.436Z,35.66
2023-02-08T09:45:51.049Z,35.55
2023-02-08T09:48:31.642Z,35.71
2023-02-08T09:51:03.701Z,35.91
2023-02-08T09:53:34.661Z,35.72
2023-02-08T09:56:05.571Z,35.74
2023-02-08T09:58:37.714Z,35.87
2023-02-08T10:01:07.029Z,35.86
2023-02-08T10:03:38.645Z,36.18
2023-02-08T10:06:08.158Z,36.02
2023-02-08T10:08:36.008Z,35.94
2023-02-08T10:11:12.866Z,35.91
2023-02-08T10:13:52.531Z,35.89
2023-02-08T10:16:36.650Z,35.86
2023-02-08T10:19:20.770Z,35.84
2023-02-08T10:22:04.022Z,36.00
2023-02-08T10:24:58.419Z,36.18
2023-02-08T10:27:37.896Z,36.64
2023-02-08T10:30:16.344Z,36.23
2023-02-08T10:32:54.791Z,36.28
2023-02-08T10:35:29.454Z,36.13
2023-02-08T10:37:56.803Z,36.33
2023-02-08T10:40:32.381Z,36.36
2023-02-08T10:43:10.641Z,36.68
2023-02-08T10:45:48.479Z,36.87
2023-02-08T10:48:28.723Z,36.82
2023-02-08T10:50:57.207Z,36.57
2023-02-08T10:53:24.309Z,36.75
2023-02-08T10:55:51.578Z,36.96
2023-02-08T10:58:21.992Z,36.59
2023-02-08T11:00:49.825Z,36.48
2023-02-08T11:03:21.825Z,36.18
2023-02-08T11:05:49.631Z,35.94
2023-02-08T11:08:20.070Z,35.97
2023-02-08T11:10:57.555Z,36.20
2023-02-08T11:13:27.524Z,36.20
2023-02-08T11:15:58.154Z,36.39
2023-02-08T11:18:27.770Z,36.26
2023-02-08T11:20:57.391Z,36.27
2023-02-08T11:23:29.635Z,36.17
2023-02-08T11:26:15.667Z,36.29
2023-02-08T11:28:43.814Z,36.46
2023-02-08T11:31:17.186Z,36.21
2023-02-08T11:33:59.999Z,36.08
2023-02-08T11:36:27.898Z,36.20
2023-02-08T11:38:57.722Z,36.61
2023-02-08T11:41:24.861Z,36.71
2023-02-08T11:43:57.836Z,36.78
2023-02-08T11:46:26.697Z,36.61
2023-02-08T11:48:54.851Z,36.56
2023-02-08T11:51:29.044Z,36.55
2023-02-08T11:53:57.657Z,36.46
2023-02-08T11:56:26.592Z,36.41
2023-02-08T11:58:59.243Z,36.43
2023-02-08T12:01:28.685Z,36.88
2023-02-08T12:03:58.236Z,36.63
2023-02-08T12:06:48.576Z,36.59
2023-02-08T12:09:33.717Z,36.67
2023-02-08T12:12:10.305Z,36.66
2023-02-08T12:14:52.478Z,36.77
2023-02-08T12:17:46.501Z,36.83
2023-02-08T12:20:34.047Z,35.78
2023-02-08T12:23:15.892Z,32.19
2023-02-08T12:25:54.640Z,30.29
2023-02-08T12:28:30.370Z,29.55
2023-02-08T12:31:06.221Z,27.11
2023-02-08T12:33:45.004Z,29.47
2023-02-08T12:36:24.251Z,29.29
2023-02-08T12:39:19.906Z,29.21
2023-02-08T12:42:02.880Z,29.93
2023-02-08T12:44:38.570Z,29.53
2023-02-08T12:47:20.787Z,28.96
2023-02-08T12:50:00.891Z,29.05
2023-02-08T12:52:36.065Z,29.16
2023-02-08T12:55:20.921Z,29.33
2023-02-08T12:57:52.509Z,29.57
2023-02-08T13:00:22.522Z,29.87
2023-02-08T13:02:56.387Z,30.20
2023-02-08T13:05:28.673Z,30.22
2023-02-08T13:08:03.228Z,30.40
2023-02-08T13:10:35.716Z,30.61
2023-02-08T13:13:12.624Z,30.82
2023-02-08T13:15:45.180Z,30.96
2023-02-08T13:18:17.266Z,30.92
2023-02-08T13:20:46.833Z,31.10
2023-02-08T13:23:22.831Z,31.41
2023-02-08T13:25:55.989Z,31.56
2023-02-08T13:28:24.955Z,31.50
2023-02-08T13:30:56.028Z,31.65
2023-02-08T13:33:30.975Z,32.06
2023-02-08T13:35:59.285Z,31.92
2023-02-08T13:38:30.546Z,32.30
2023-02-08T13:41:08.201Z,32.17
2023-02-08T13:43:43.618Z,32.14
2023-02-08T13:46:11.949Z,32.29
2023-02-08T13:48:45.802Z,32.28
2023-02-08T13:52:01.778Z,32.41
2023-02-08T13:54:28.952Z,32.58
2023-02-08T13:56:57.890Z,32.69
2023-02-08T13:59:35.399Z,32.71
2023-02-08T14:02:35.611Z,33.07
2023-02-08T14:05:38.994Z,33.21
2023-02-08T14:08:07.749Z,33.32
2023-02-08T14:10:41.856Z,33.45
2023-02-08T14:13:27.387Z,33.50
2023-02-08T14:16:29.323Z,33.49
2023-02-08T14:18:59.023Z,33.53
2023-02-08T14:21:37.377Z,33.61
2023-02-08T14:24:07.507Z,33.61
2023-02-08T14:26:37.321Z,33.78
2023-02-08T14:29:07.064Z,33.88
2023-02-08T14:31:40.980Z,33.85
2023-02-08T14:34:23.031Z,33.82
2023-02-08T14:37:00.401Z,34.04
2023-02-08T14:39:28.753Z,33.94
2023-02-08T14:41:57.560Z,33.89
2023-02-08T14:44:48.137Z,33.91
2023-02-08T14:48:03.259Z,34.00
2023-02-08T14:50:35.533Z,34.11
2023-02-08T14:53:16.894Z,34.09
2023-02-08T14:55:48.413Z,34.10
2023-02-08T14:58:32.185Z,34.28
2023-02-08T15:01:06.089Z,34.30
2023-02-08T15:03:34.991Z,34.35
2023-02-08T15:06:30.865Z,34.29
2023-02-08T15:08:58.389Z,34.22
2023-02-08T15:11:28.294Z,34.10
2023-02-08T15:14:01.066Z,34.20
2023-02-08T15:16:33.561Z,34.26
2023-02-08T15:19:02.527Z,34.21
2023-02-08T15:21:32.719Z,34.30
2023-02-08T15:24:01.357Z,34.13
2023-02-08T15:26:28.835Z,34.15
2023-02-08T15:28:56.287Z,34.08
2023-02-08T15:31:29.911Z,33.89
2023-02-08T15:33:58.970Z,33.73
2023-02-08T15:36:29.542Z,33.78
2023-02-08T15:39:01.184Z,33.74
2023-02-08T15:41:30.949Z,33.53
2023-02-08T15:44:07.645Z,33.33
2023-02-08T15:46:35.621Z,33.25
2023-02-08T15:49:02.931Z,33.24
2023-02-08T15:51:30.315Z,33.45
2023-02-08T15:53:59.047Z,33.44
2023-02-08T15:56:37.242Z,33.53
2023-02-08T15:59:13.228Z,33.54
2023-02-08T16:01:40.387Z,33.67
2023-02-08T16:04:07.564Z,33.85
2023-02-08T16:06:38.981Z,33.90
2023-02-08T16:09:07.549Z,33.83
2023-02-08T16:11:36.302Z,33.89
2023-02-08T16:14:04.956Z,34.16
2023-02-08T16:16:39.427Z,33.87
2023-02-08T16:19:18.748Z,33.37
2023-02-08T16:21:46.573Z,33.07
2023-02-08T16:24:23.491Z,32.73
2023-02-08T16:26:57.370Z,32.66
2023-02-08T16:29:26.906Z,32.64
2023-02-08T16:32:00.206Z,32.88
2023-02-08T16:34:28.466Z,32.79
2023-02-08T16:36:55.630Z,32.71
2023-02-08T16:39:36.290Z,33.05
2023-02-08T16:42:15.381Z,33.00
2023-02-08T16:45:03.044Z,33.28
2023-02-08T16:47:36.376Z,34.39
2023-02-08T16:50:04.154Z,34.52
2023-02-08T16:52:32.413Z,34.83
2023-02-08T16:55:01.377Z,35.20
2023-02-08T16:57:39.357Z,35.39
2023-02-08T17:00:14.697Z,35.80
2023-02-08T17:02:41.929Z,36.24
2023-02-08T17:05:09.789Z,35.52
2023-02-08T17:07:37.165Z,35.87
2023-02-08T17:10:08.165Z,35.77
2023-02-08T17:12:35.297Z,35.26
2023-02-08T17:15:02.433Z,35.37
2023-02-08T17:17:29.541Z,35.36
2023-02-08T17:19:56.635Z,35.37
2023-02-08T17:22:23.802Z,35.27
2023-02-08T17:24:50.993Z,35.22
2023-02-08T17:27:19.475Z,35.07
2023-02-08T17:29:46.590Z,35.06
2023-02-08T17:32:13.693Z,35.17
2023-02-08T17:34:40.778Z,35.06
2023-02-08T17:37:07.961Z,35.01
2023-02-08T17:39:35.075Z,34.73
2023-02-08T17:42:02.162Z,34.39
2023-02-08T17:44:30.586Z,34.52
2023-02-08T17:46:57.770Z,34.41
2023-02-08T17:49:24.845Z,34.41
2023-02-08T17:51:52.016Z,34.67
2023-02-08T17:54:19.121Z,34.57
2023-02-08T17:56:46.193Z,34.81
2023-02-08T17:59:13.266Z,35.02
2023-02-08T18:01:41.790Z,35.14
2023-02-08T18:04:08.956Z,35.33
2023-02-08T18:06:36.041Z,35.43
2023-02-08T18:09:03.500Z,35.38
2023-02-08T18:11:30.762Z,35.68
2023-02-08T18:13:57.846Z,35.70
2023-02-08T18:16:27.105Z,35.51
2023-02-08T18:18:56.589Z,35.71
2023-02-08T18:21:24.294Z,35.79
2023-02-08T18:23:51.626Z,36.35
2023-02-08T18:26:21.056Z,36.34
2023-02-08T18:28:48.475Z,35.68
2023-02-08T18:31:17.459Z,35.42
2023-02-08T18:33:44.638Z,35.38
2023-02-08T18:36:13.787Z,35.39
2023-02-08T18:38:42.546Z,35.40
2023-02-08T18:41:10.839Z,35.22
2023-02-08T18:43:39.179Z,35.16
2023-02-08T18:46:08.859Z,35.13
2023-02-08T18:48:36.594Z,35.12
2023-02-08T18:51:04.543Z,35.32
2023-02-08T18:53:35.340Z,35.17
2023-02-08T18:56:04.013Z,35.10
2023-02-08T18:58:31.626Z,34.80
2023-02-08T19:01:05.183Z,34.75
2023-02-08T19:03:32.329Z,34.89
2023-02-08T19:06:03.834Z,34.64
2023-02-08T19:08:31.261Z,34.46
2023-02-08T19:10:59.758Z,34.69
2023-02-08T19:13:26.963Z,34.46
2023-02-08T19:15:54.407Z,34.64
2023-02-08T19:18:21.593Z,34.73
2023-02-08T19:20:48.734Z,34.88
2023-02-08T19:23:15.851Z,34.88
2023-02-08T19:25:43.169Z,35.04
2023-02-08T19:28:11.989Z,35.30
2023-02-08T19:30:39.147Z,35.16
2023-02-08T19:33:06.289Z,35.34
2023-02-08T19:35:36.840Z,35.42
2023-02-08T19:38:04.350Z,35.60
2023-02-08T19:40:31.493Z,35.42
2023-02-08T19:42:58.583Z,35.32
2023-02-08T19:45:27.113Z,35.40
2023-02-08T19:47:54.226Z,35.52
2023-02-08T19:50:21.435Z,35.39
2023-02-08T19:52:48.556Z,35.25
2023-02-08T19:55:15.876Z,35.28
2023-02-08T19:57:42.982Z,35.33
2023-02-08T20:00:22.948Z,35.30
2023-02-08T20:02:52.265Z,35.32
2023-02-08T20:05:19.386Z,35.32
2023-02-08T20:07:46.491Z,35.25
2023-02-08T20:10:13.576Z,35.26
2023-02-08T20:12:40.681Z,35.34
2023-02-08T20:15:08.585Z,35.32
2023-02-08T20:17:35.674Z,35.30
2023-02-08T20:20:04.946Z,35.38
2023-02-08T20:22:32.023Z,35.30
2023-02-08T20:24:59.093Z,35.42
2023-02-08T20:27:27.359Z,35.37
2023-02-08T20:29:55.518Z,35.46
2023-02-08T20:32:22.702Z,35.35
2023-02-08T20:34:59.057Z,35.26
2023-02-08T20:37:28.396Z,35.42
2023-02-08T20:39:55.702Z,35.33
2023-02-08T20:42:22.786Z,35.25
2023-02-08T20:44:49.903Z,35.27
2023-02-08T20:47:17.165Z,35.11
2023-02-08T20:49:44.261Z,35.16
2023-02-08T20:52:11.666Z,35.14
2023-02-08T20:54:40.175Z,35.04
2023-02-08T20:57:07.397Z,35.15
2023-02-08T20:59:34.505Z,35.09
2023-02-08T21:02:01.642Z,35.19
2023-02-08T21:04:28.763Z,35.23
2023-02-08T21:06:55.921Z,35.06
2023-02-08T21:09:23.553Z,35.25
2023-02-08T21:11:52.408Z,35.25
2023-02-08T21:14:21.487Z,35.16
2023-02-08T21:16:50.642Z,35.08
2023-02-08T21:19:18.847Z,35.19
2023-02-08T21:21:49.163Z,35.17
2023-02-08T21:24:16.482Z,35.08
2023-02-08T21:26:43.574Z,35.12
2023-02-08T21:29:12.103Z,35.06
2023-02-08T21:31:39.361Z,34.96
2023-02-08T21:34:07.117Z,35.09
2023-02-08T21:36:34.797Z,34.97
2023-02-08T21:39:01.980Z,35.06
2023-02-08T21:41:31.017Z,34.92
2023-02-08T21:43:59.804Z,35.08
2023-02-08T21:46:28.799Z,35.08
2023-02-08T21:48:57.037Z,34.97
2023-02-08T21:51:25.419Z,35.11
2023-02-08T21:53:52.730Z,34.96
2023-02-08T21:56:19.858Z,34.94
2023-02-08T21:58:46.983Z,35.08
2023-02-08T22:01:14.159Z,35.11
2023-02-08T22:03:42.627Z,35.01
2023-02-08T22:06:09.716Z,34.98
2023-02-08T22:08:36.885Z,34.96
2023-02-08T22:11:04.542Z,34.99
2023-02-08T22:13:32.010Z,35.04
2023-02-08T22:15:59.220Z,34.95
2023-02-08T22:18:27.460Z,34.86
2023-02-08T22:20:55.908Z,34.81
2023-02-08T22:23:23.173Z,34.85
2023-02-08T22:25:50.282Z,34.81
2023-02-08T22:28:17.444Z,34.90
2023-02-08T22:30:47.433Z,34.83
2023-02-08T22:33:14.923Z,34.78
2023-02-08T22:35:42.052Z,34.85
2023-02-08T22:38:10.596Z,34.90
2023-02-08T22:40:40.452Z,34.93
2023-02-08T22:43:07.554Z,34.92
2023-02-08T22:45:34.654Z,34.89
2023-02-08T22:48:01.748Z,35.02
2023-02-08T22:50:28.929Z,34.82
2023-02-08T22:52:56.082Z,34.94
2023-02-08T22:55:24.616Z,34.89
2023-02-08T22:57:51.806Z,34.94
2023-02-08T23:00:19.544Z,34.85
2023-02-08T23:02:46.699Z,34.86
2023-02-08T23:05:13.851Z,34.91
2023-02-08T23:07:41.142Z,34.80
2023-02-08T23:10:09.533Z,34.84
2023-02-08T23:12:37.983Z,34.75
2023-02-08T23:15:05.730Z,34.80
2023-02-08T23:17:35.247Z,34.74
2023-02-08T23:20:02.336Z,34.56
2023-02-08T23:22:29.461Z,34.88
2023-02-08T23:24:56.683Z,34.81
2023-02-08T23:27:23.798Z,34.84
2023-02-08T23:29:52.301Z,34.83
2023-02-08T23:32:19.403Z,34.79
2023-02-08T23:34:46.504Z,34.70
2023-02-08T23:37:13.903Z,34.78
2023-02-08T23:39:40.987Z,34.93
2023-02-08T23:42:08.074Z,34.95
2023-02-08T23:44:35.190Z,34.88
2023-02-08T23:47:03.729Z,34.86
2023-02-08T23:49:30.838Z,34.95
2023-02-08T23:51:57.998Z,34.88
2023-02-08T23:54:25.068Z,34.89
2023-02-08T23:56:52.205Z,34.77
2023-02-08T23:59:19.319Z,34.69
